createdAt,value
2022-08-12T00:00:37.060Z,2.10
2022-08-12T00:04:17.007Z,2.10
2022-08-12T00:10:06.619Z,2.00
2022-08-12T00:19:47.075Z,1.92
2022-08-12T00:26:05.701Z,1.88
2022-08-12T00:35:18.800Z,1.92
2022-08-12T00:47:38.641Z,2.30
2022-08-12T00:51:21.753Z,2.00
2022-08-12T00:53:49.336Z,1.83
2022-08-12T01:00:21.741Z,1.80
2022-08-12T01:03:10.821Z,1.95
2022-08-12T01:09:43.731Z,2.00
2022-08-12T01:13:18.503Z,1.90
2022-08-12T01:15:49.213Z,2.00
2022-08-12T01:18:40.150Z,2.13
2022-08-12T01:31:18.827Z,1.67
2022-08-12T01:38:02.808Z,2.08
2022-08-12T01:41:10.312Z,1.65
2022-08-12T01:43:38.337Z,1.92
2022-08-12T01:46:50.579Z,1.52
2022-08-12T01:49:45.227Z,1.73
2022-08-12T01:52:22.284Z,1.70
2022-08-12T01:54:52.044Z,1.60
2022-08-12T02:04:19.666Z,1.67
2022-08-12T02:08:05.273Z,1.77
2022-08-12T02:14:32.179Z,1.50
2022-08-12T02:17:15.018Z,1.50
2022-08-12T02:22:39.995Z,1.73
2022-08-12T02:25:30.197Z,2.00
2022-08-12T02:31:31.309Z,1.52
2022-08-12T02:34:05.586Z,1.75
2022-08-12T02:42:25.292Z,1.42
2022-08-12T02:48:20.054Z,1.95
2022-08-12T02:51:13.404Z,1.80
2022-08-12T02:53:45.435Z,1.60
2022-08-12T02:56:59.187Z,1.60
2022-08-12T03:02:40.448Z,1.63
2022-08-12T03:05:44.254Z,1.90
2022-08-12T03:21:57.893Z,1.98
2022-08-12T03:27:24.199Z,1.60
2022-08-12T03:31:07.674Z,1.85
2022-08-12T03:40:30.512Z,2.00
2022-08-12T03:43:23.576Z,2.03
2022-08-12T03:47:04.475Z,1.70
2022-08-12T03:59:55.015Z,1.92
2022-08-12T04:02:41.669Z,1.83
2022-08-12T04:05:56.120Z,2.00
2022-08-12T04:08:26.385Z,1.80
2022-08-12T04:11:13.355Z,1.70
2022-08-12T04:13:41.753Z,1.80
2022-08-12T04:16:13.709Z,1.70
2022-08-12T04:22:22.477Z,2.10
2022-08-12T04:25:29.291Z,2.10
2022-08-12T04:27:57.063Z,1.98
2022-08-12T04:35:13.086Z,1.73
2022-08-12T04:37:58.330Z,2.08
2022-08-12T04:47:03.165Z,1.95
2022-08-12T04:50:37.359Z,1.80
2022-08-12T04:53:09.397Z,2.00
2022-08-12T04:58:43.025Z,2.00
2022-08-12T05:02:14.493Z,1.98
2022-08-12T05:08:02.110Z,2.13
2022-08-12T05:10:55.261Z,2.20
2022-08-12T05:14:16.032Z,2.00
2022-08-12T05:22:39.359Z,1.98
2022-08-12T05:25:34.945Z,2.05
2022-08-12T05:32:20.931Z,1.70
2022-08-12T05:38:36.135Z,1.98
2022-08-12T05:41:06.896Z,1.92
2022-08-12T05:55:27.069Z,1.38
2022-08-12T05:57:58.310Z,1.70
2022-08-12T06:00:26.242Z,1.25
2022-08-12T06:03:21.604Z,1.63
2022-08-12T06:08:55.294Z,1.20
2022-08-12T06:11:27.300Z,1.40
2022-08-12T06:13:58.771Z,1.50
2022-08-12T06:24:21.552Z,1.35
2022-08-12T06:27:16.993Z,1.60
2022-08-12T06:33:21.045Z,1.35
2022-08-12T06:36:44.425Z,1.42
2022-08-12T06:39:20.768Z,1.40
2022-08-12T06:42:53.340Z,1.50
2022-08-12T06:45:25.222Z,1.25
2022-08-12T06:48:16.600Z,1.58
2022-08-12T07:03:40.498Z,4.72
2022-08-12T07:09:58.120Z,1.50
2022-08-12T07:36:02.091Z,1.50
2022-08-12T08:07:01.209Z,1.67
2022-08-12T08:16:48.844Z,1.40
2022-08-12T08:27:01.137Z,1.52
2022-08-12T08:29:53.487Z,1.50
2022-08-12T08:32:24.811Z,1.30
2022-08-12T08:34:55.319Z,1.30
2022-08-12T08:37:24.079Z,1.33
2022-08-12T08:39:54.233Z,1.38
2022-08-12T08:42:41.053Z,1.60
2022-08-12T08:51:26.713Z,1.30
2022-08-12T08:57:54.872Z,1.55
2022-08-12T09:14:10.875Z,1.50
2022-08-12T09:16:24.821Z,2.13
2022-08-12T09:20:08.437Z,1.63
2022-08-12T09:24:00.012Z,1.33
2022-08-12T09:27:08.321Z,1.10
2022-08-12T09:37:52.909Z,1.52
2022-08-12T09:41:01.280Z,1.50
2022-08-12T09:50:00.713Z,1.58
2022-08-12T09:52:32.045Z,1.23
2022-08-12T09:59:01.433Z,1.15
2022-08-12T10:01:35.481Z,1.30
2022-08-12T10:07:25.117Z,1.60
2022-08-12T10:19:17.254Z,1.05
2022-08-12T10:21:38.760Z,1.50
2022-08-12T10:24:24.290Z,1.38
2022-08-12T10:27:16.127Z,1.30
2022-08-12T10:33:31.629Z,1.08
2022-08-12T10:37:10.686Z,1.40
2022-08-12T10:40:00.985Z,1.50
2022-08-12T10:46:13.168Z,1.30
2022-08-12T10:49:05.649Z,1.30
2022-08-12T10:52:33.795Z,1.20
2022-08-12T11:00:29.518Z,1.10
2022-08-12T11:13:53.368Z,1.00
2022-08-12T11:20:30.714Z,1.20
2022-08-12T11:23:25.250Z,1.63
2022-08-12T11:25:58.038Z,1.38
2022-08-12T11:31:26.342Z,1.40
2022-08-12T11:34:51.309Z,1.15
2022-08-12T11:37:25.815Z,1.30
2022-08-12T11:40:02.098Z,1.25
2022-08-12T11:42:32.519Z,1.10
2022-08-12T11:44:59.786Z,1.20
2022-08-12T11:47:41.772Z,1.38
2022-08-12T11:50:11.750Z,1.33
2022-08-12T11:52:55.898Z,1.20
2022-08-12T11:55:34.792Z,1.38
2022-08-12T11:59:35.984Z,1.35
2022-08-12T12:03:54.778Z,1.17
2022-08-12T12:06:25.179Z,1.10
2022-08-12T12:09:03.606Z,1.42
2022-08-12T12:11:48.953Z,1.52
2022-08-12T12:14:19.833Z,1.10
2022-08-12T12:17:09.217Z,1.45
2022-08-12T12:19:45.366Z,1.33
2022-08-12T12:22:15.842Z,1.40
2022-08-12T12:24:51.340Z,1.40
2022-08-12T12:28:04.168Z,1.27
2022-08-12T12:30:18.249Z,1.30
2022-08-12T12:33:00.115Z,1.30
2022-08-12T12:36:19.857Z,1.25
2022-08-12T12:38:20.742Z,1.40
2022-08-12T12:41:16.994Z,1.50
2022-08-12T12:44:04.248Z,1.33
2022-08-12T12:50:06.690Z,1.30
2022-08-12T12:52:42.948Z,1.38
2022-08-12T12:55:16.664Z,1.40
2022-08-12T12:58:25.327Z,1.20
2022-08-12T13:01:04.516Z,1.33
2022-08-12T13:04:02.267Z,1.40
2022-08-12T13:06:58.809Z,1.58
2022-08-12T13:09:40.155Z,1.60
2022-08-12T13:12:23.269Z,1.50
2022-08-12T13:14:53.202Z,1.20
2022-08-12T13:17:23.567Z,1.50
2022-08-12T13:19:55.435Z,1.42
2022-08-12T13:22:23.855Z,1.40
2022-08-12T13:24:56.388Z,1.33
2022-08-12T13:27:35.599Z,1.50
2022-08-12T13:30:12.537Z,1.30
2022-08-12T13:32:42.711Z,1.20
2022-08-12T13:35:19.301Z,1.27
2022-08-12T13:38:02.751Z,1.25
2022-08-12T13:40:37.523Z,1.38
2022-08-12T13:43:06.949Z,1.52
2022-08-12T13:45:35.646Z,1.42
2022-08-12T13:48:07.721Z,1.30
2022-08-12T13:50:38.451Z,1.40
2022-08-12T13:53:24.075Z,1.35
2022-08-12T13:55:59.361Z,1.35
2022-08-12T13:58:28.427Z,1.42
2022-08-12T14:00:58.252Z,1.52
2022-08-12T14:03:28.601Z,1.38
2022-08-12T14:06:15.382Z,1.67
2022-08-12T14:08:43.735Z,1.40
2022-08-12T14:11:12.435Z,1.55
2022-08-12T14:14:03.855Z,1.30
2022-08-12T14:16:37.866Z,1.58
2022-08-12T14:19:23.348Z,1.38
2022-08-12T14:21:59.757Z,1.38
2022-08-12T14:24:40.700Z,1.30
2022-08-12T14:27:10.902Z,1.30
2022-08-12T14:30:04.658Z,1.23
2022-08-12T14:32:34.880Z,1.70
2022-08-12T14:35:04.037Z,1.73
2022-08-12T14:37:56.406Z,1.40
2022-08-12T14:40:27.477Z,1.45
2022-08-12T14:42:57.028Z,1.48
2022-08-12T14:45:44.448Z,1.60
2022-08-12T14:48:13.731Z,1.52
2022-08-12T15:12:09.847Z,1.30
2022-08-12T15:18:10.810Z,1.50
2022-08-12T15:22:36.795Z,1.65
2022-08-12T15:24:54.051Z,1.30
2022-08-12T15:28:54.058Z,1.23
2022-08-12T16:12:58.308Z,1.90
2022-08-12T16:18:18.578Z,1.98
2022-08-12T16:20:47.612Z,2.72
2022-08-12T16:23:36.386Z,3.95
2022-08-12T16:26:15.145Z,2.38
2022-08-12T16:28:48.083Z,1.90
2022-08-12T16:31:23.185Z,1.98
2022-08-12T16:34:00.012Z,2.00
2022-08-12T16:36:31.014Z,2.38
2022-08-12T16:39:01.420Z,2.60
2022-08-12T16:41:39.456Z,2.00
2022-08-12T16:44:10.598Z,1.70
2022-08-12T16:46:38.103Z,1.80
2022-08-12T16:49:08.902Z,2.15
2022-08-12T16:51:45.987Z,1.88
2022-08-12T16:54:16.458Z,2.13
2022-08-12T16:56:50.964Z,2.03
2022-08-12T16:59:52.950Z,2.42
2022-08-12T17:02:30.058Z,2.38
2022-08-12T17:04:59.891Z,2.00
2022-08-12T17:10:12.950Z,2.00
2022-08-12T17:12:40.807Z,2.30
2022-08-12T17:15:50.413Z,2.30
2022-08-12T17:18:39.308Z,2.30
2022-08-12T17:20:47.543Z,2.28
2022-08-12T17:23:24.347Z,2.83
2022-08-12T17:25:53.647Z,2.83
2022-08-12T17:28:43.173Z,2.72
2022-08-12T17:32:31.452Z,2.75
2022-08-12T17:35:37.263Z,2.80
2022-08-12T17:42:32.580Z,2.95
2022-08-12T17:46:13.241Z,2.80
2022-08-12T17:48:55.579Z,3.28
2022-08-12T17:51:26.040Z,2.97
2022-08-12T17:54:10.827Z,2.90
2022-08-12T17:56:43.225Z,3.10
2022-08-12T17:59:12.551Z,3.40
2022-08-12T18:01:45.327Z,3.28
2022-08-12T18:04:21.817Z,3.42
2022-08-12T18:06:56.748Z,3.33
2022-08-12T18:16:05.493Z,3.10
2022-08-12T18:18:58.623Z,3.25
2022-08-12T18:22:02.743Z,2.90
2022-08-12T18:33:05.744Z,2.90
2022-08-12T18:35:46.422Z,3.22
2022-08-12T18:39:17.710Z,2.90
2022-08-12T18:41:49.926Z,2.50
2022-08-12T18:51:22.094Z,1.65
